Time;durP1;ratioP1;P1;durP2;ratioP2;P2;SDS_P1;SDS_P2;PMS_P1;PMS_P2;Temp;Humidity;BMP_temperature;BMP_pressure;BME280_temperature;BME280_humidity;BME280_pressure;Samples;Min_cycle;Max_cycle;Signal;HPM_P1;HPM_P2
2024/03/31 00:00:26;;;;;;;149.95;142.38;;;;;;;;;;5113518;27;20046;-54
2024/03/31 00:02:52;;;;;;;145.20;136.15;;;;;;;;;;5112686;27;20084;-49
2024/03/31 00:05:17;;;;;;;133.07;125.75;;;;;;;;;;5111673;27;20382;-54
2024/03/31 00:07:43;;;;;;;149.10;141.52;;;;;;;;;;5115315;27;20410;-55
2024/03/31 00:10:09;;;;;;;148.55;141.02;;;;;;;;;;5114876;27;20048;-54
2024/03/31 00:12:35;;;;;;;139.20;131.18;;;;;;;;;;5113121;27;20134;-53
2024/03/31 00:15:00;;;;;;;143.57;136.38;;;;;;;;;;5112736;27;20176;-54
2024/03/31 00:17:25;;;;;;;151.80;143.85;;;;;;;;;;5113115;27;20042;-53
2024/03/31 00:19:52;;;;;;;161.43;153.13;;;;;;;;;;5094542;27;20034;-53
2024/03/31 00:22:17;;;;;;;161.57;153.50;;;;;;;;;;5115172;27;20039;-53
2024/03/31 00:24:43;;;;;;;161.05;152.73;;;;;;;;;;5112004;27;20031;-54
2024/03/31 00:27:09;;;;;;;150.52;142.82;;;;;;;;;;5097351;27;20030;-54
2024/03/31 00:29:34;;;;;;;152.30;144.55;;;;;;;;;;5111205;27;20147;-52
2024/03/31 00:32:00;;;;;;;154.27;146.50;;;;;;;;;;5114632;27;20114;-54
2024/03/31 00:34:25;;;;;;;149.05;141.55;;;;;;;;;;5113457;27;20390;-55
2024/03/31 00:36:50;;;;;;;148.32;140.35;;;;;;;;;;5114001;27;20754;-49
2024/03/31 00:39:16;;;;;;;154.90;146.98;;;;;;;;;;5116191;27;20023;-55
2024/03/31 00:41:42;;;;;;;151.60;144.00;;;;;;;;;;5113495;27;20110;-55
2024/03/31 00:44:07;;;;;;;154.10;145.88;;;;;;;;;;5113017;27;20046;-53
2024/03/31 00:46:33;;;;;;;141.82;134.73;;;;;;;;;;5094963;27;21349;-53
2024/03/31 00:48:58;;;;;;;149.02;141.18;;;;;;;;;;5113923;27;20145;-55
2024/03/31 00:51:23;;;;;;;143.32;135.88;;;;;;;;;;5091973;27;20102;-54
2024/03/31 00:53:49;;;;;;;125.28;118.40;;;;;;;;;;5112559;27;20080;-54
2024/03/31 00:56:15;;;;;;;131.85;125.15;;;;;;;;;;5112006;27;20043;-54
2024/03/31 00:58:41;;;;;;;132.32;125.70;;;;;;;;;;5110374;27;20600;-52
2024/03/31 01:01:08;;;;;;;130.95;124.35;;;;;;;;;;5107566;27;20077;-53
2024/03/31 01:03:34;;;;;;;122.82;116.65;;;;;;;;;;5113343;27;20059;-55
2024/03/31 01:06:09;;;;;;;106.80;101.00;;;;;;;;;;5113752;27;20085;-52
2024/03/31 01:08:35;;;;;;;113.93;108.18;;;;;;;;;;5115010;27;20042;-51
2024/03/31 01:11:00;;;;;;;130.30;121.50;;;;;;;;;;5114169;27;20023;-52
2024/03/31 01:13:26;;;;;;;132.77;125.93;;;;;;;;;;5113199;27;20019;-50
2024/03/31 01:15:52;;;;;;;124.95;118.43;;;;;;;;;;5113064;27;20038;-50
2024/03/31 01:18:17;;;;;;;135.77;128.82;;;;;;;;;;5111947;27;20425;-53
2024/03/31 01:20:42;;;;;;;136.57;129.48;;;;;;;;;;5112106;27;20480;-51
2024/03/31 01:23:09;;;;;;;135.68;128.70;;;;;;;;;;5114760;27;20035;-48
2024/03/31 01:25:38;;;;;;;137.88;130.77;;;;;;;;;;5112733;27;20142;-54
2024/03/31 01:28:03;;;;;;;139.00;131.73;;;;;;;;;;5112353;27;20027;-52
2024/03/31 01:30:29;;;;;;;137.73;130.82;;;;;;;;;;5112405;27;20031;-53
2024/03/31 01:32:58;;;;;;;141.68;134.27;;;;;;;;;;5111774;27;20028;-52
2024/03/31 01:35:24;;;;;;;139.63;132.43;;;;;;;;;;5109284;27;20090;-55
2024/03/31 01:37:50;;;;;;;121.40;115.10;;;;;;;;;;5112025;27;20644;-52
2024/03/31 01:40:16;;;;;;;134.90;128.02;;;;;;;;;;5111570;27;20479;-53
2024/03/31 01:42:44;;;;;;;130.10;123.55;;;;;;;;;;5111733;27;20169;-50
2024/03/31 01:45:11;;;;;;;129.88;122.85;;;;;;;;;;5094009;28;20118;-51
2024/03/31 01:47:36;;;;;;;129.57;122.90;;;;;;;;;;5097244;28;20565;-53
2024/03/31 01:50:01;;;;;;;126.93;120.38;;;;;;;;;;5112232;27;20036;-52
2024/03/31 01:52:26;;;;;;;127.13;120.60;;;;;;;;;;5114226;27;20031;-51
2024/03/31 01:54:52;;;;;;;127.70;121.20;;;;;;;;;;5111328;28;20027;-54
2024/03/31 01:57:17;;;;;;;147.32;139.82;;;;;;;;;;5109816;28;20035;-53
2024/03/31 01:59:42;;;;;;;162.77;154.43;;;;;;;;;;5114885;28;20453;-52
2024/03/31 02:02:08;;;;;;;151.07;143.35;;;;;;;;;;5113324;28;20110;-51
2024/03/31 02:04:33;;;;;;;137.95;130.20;;;;;;;;;;5113441;28;20023;-60
2024/03/31 02:06:58;;;;;;;146.70;138.20;;;;;;;;;;5092258;28;20027;-59
2024/03/31 02:09:24;;;;;;;131.88;124.82;;;;;;;;;;5111999;28;20580;-60
2024/03/31 02:11:49;;;;;;;132.95;126.15;;;;;;;;;;5112924;28;20031;-59
2024/03/31 02:14:14;;;;;;;119.07;112.53;;;;;;;;;;5111970;28;20039;-59
2024/03/31 02:16:39;;;;;;;124.20;118.00;;;;;;;;;;5114128;28;20065;-60
2024/03/31 02:19:05;;;;;;;116.90;110.97;;;;;;;;;;5094482;28;20019;-59
2024/03/31 02:21:30;;;;;;;153.43;145.57;;;;;;;;;;5109630;28;20409;-59
2024/03/31 02:23:55;;;;;;;129.60;123.05;;;;;;;;;;5112370;28;20468;-59
2024/03/31 02:26:21;;;;;;;135.57;128.48;;;;;;;;;;5111759;28;20100;-59
2024/03/31 02:28:46;;;;;;;133.90;126.63;;;;;;;;;;5109893;28;20043;-59
2024/03/31 02:31:12;;;;;;;140.00;132.85;;;;;;;;;;5110770;28;20059;-59
2024/03/31 02:33:37;;;;;;;110.60;105.03;;;;;;;;;;5112078;28;20023;-60
2024/03/31 02:36:03;;;;;;;119.70;112.97;;;;;;;;;;5109452;28;20043;-60
2024/03/31 02:38:28;;;;;;;115.35;109.32;;;;;;;;;;5111034;28;20032;-59
2024/03/31 02:40:54;;;;;;;113.90;107.95;;;;;;;;;;5112346;28;20091;-59
2024/03/31 02:43:19;;;;;;;103.68;98.43;;;;;;;;;;5112837;27;20038;-59
2024/03/31 02:45:44;;;;;;;113.78;108.03;;;;;;;;;;5114525;27;20028;-59
2024/03/31 02:48:10;;;;;;;118.53;112.40;;;;;;;;;;5096500;27;20027;-60
2024/03/31 02:50:35;;;;;;;140.40;133.32;;;;;;;;;;5114303;27;20042;-60
2024/03/31 02:53:00;;;;;;;121.35;115.20;;;;;;;;;;5116520;27;20118;-60
2024/03/31 02:55:26;;;;;;;122.63;114.15;;;;;;;;;;5115549;27;20023;-60
2024/03/31 02:57:51;;;;;;;129.48;122.72;;;;;;;;;;5117433;27;20077;-60
2024/03/31 03:00:16;;;;;;;128.57;120.80;;;;;;;;;;5118246;27;20130;-59
2024/03/31 03:02:42;;;;;;;120.85;114.65;;;;;;;;;;5118191;27;20372;-60
2024/03/31 03:05:08;;;;;;;131.07;124.10;;;;;;;;;;5114443;27;20034;-60
2024/03/31 03:07:34;;;;;;;139.95;132.80;;;;;;;;;;5116837;27;20093;-61
2024/03/31 03:09:59;;;;;;;142.93;134.88;;;;;;;;;;5112941;27;20556;-60
2024/03/31 03:12:24;;;;;;;152.43;144.68;;;;;;;;;;5113653;27;20070;-60
2024/03/31 03:14:53;;;;;;;117.85;111.75;;;;;;;;;;5093906;27;20032;-61
2024/03/31 03:17:18;;;;;;;124.35;118.05;;;;;;;;;;5114153;27;20529;-61
2024/03/31 03:19:44;;;;;;;128.77;122.05;;;;;;;;;;5112924;27;20031;-61
2024/03/31 03:22:10;;;;;;;129.52;122.93;;;;;;;;;;5115981;27;20131;-61
2024/03/31 03:24:36;;;;;;;110.32;104.13;;;;;;;;;;5114648;27;20065;-62
2024/03/31 03:27:02;;;;;;;124.75;118.32;;;;;;;;;;5114001;27;20510;-62
2024/03/31 03:29:27;;;;;;;116.18;110.13;;;;;;;;;;5114757;27;20035;-61
2024/03/31 03:31:53;;;;;;;129.30;122.78;;;;;;;;;;5115607;27;20039;-61
2024/03/31 03:34:18;;;;;;;119.00;112.85;;;;;;;;;;5115023;27;20035;-61
2024/03/31 03:36:44;;;;;;;118.90;112.50;;;;;;;;;;5109333;27;20024;-62
2024/03/31 03:39:09;;;;;;;119.82;113.47;;;;;;;;;;5116335;27;20041;-62
2024/03/31 03:41:34;;;;;;;114.50;108.63;;;;;;;;;;5112736;27;20982;-62
2024/03/31 03:43:59;;;;;;;114.20;108.32;;;;;;;;;;5114618;27;20111;-62
2024/03/31 03:46:25;;;;;;;120.05;114.00;;;;;;;;;;5112598;27;20084;-62
2024/03/31 03:48:50;;;;;;;125.63;119.13;;;;;;;;;;5113104;27;20035;-61
2024/03/31 03:51:15;;;;;;;121.57;114.28;;;;;;;;;;5112902;27;20058;-61
2024/03/31 03:53:41;;;;;;;116.68;110.78;;;;;;;;;;5110165;27;20546;-62
2024/03/31 03:56:06;;;;;;;125.65;119.00;;;;;;;;;;5109451;27;20471;-62
2024/03/31 03:58:31;;;;;;;120.65;114.55;;;;;;;;;;5110692;27;20044;-62
2024/03/31 04:00:57;;;;;;;121.20;115.10;;;;;;;;;;5113365;27;20385;-62
2024/03/31 04:03:22;;;;;;;138.75;130.85;;;;;;;;;;5114160;27;20031;-61
2024/03/31 04:05:55;;;;;;;122.40;116.22;;;;;;;;;;5114811;27;20054;-61
2024/03/31 04:08:21;;;;;;;111.80;106.05;;;;;;;;;;5109970;27;20125;-61
2024/03/31 04:10:47;;;;;;;122.78;116.57;;;;;;;;;;5114308;27;20134;-62
2024/03/31 04:13:12;;;;;;;112.32;106.63;;;;;;;;;;5094664;27;20027;-61
2024/03/31 04:15:37;;;;;;;108.95;103.43;;;;;;;;;;5112298;27;20115;-61
2024/03/31 04:18:03;;;;;;;114.38;108.63;;;;;;;;;;5112807;27;20036;-61
2024/03/31 04:20:28;;;;;;;132.18;124.05;;;;;;;;;;5108094;27;20039;-62
2024/03/31 04:22:53;;;;;;;127.53;118.60;;;;;;;;;;5113396;27;20023;-61
2024/03/31 04:25:19;;;;;;;108.15;102.25;;;;;;;;;;5112666;27;20638;-61
2024/03/31 04:27:44;;;;;;;112.97;107.22;;;;;;;;;;5112108;27;20454;-62
2024/03/31 04:30:09;;;;;;;110.25;104.68;;;;;;;;;;5112802;27;20099;-62
2024/03/31 04:32:35;;;;;;;112.68;106.38;;;;;;;;;;5110387;27;20548;-61
2024/03/31 04:35:00;;;;;;;104.60;99.00;;;;;;;;;;5111377;27;20031;-61
2024/03/31 04:37:25;;;;;;;101.70;96.53;;;;;;;;;;5113545;27;20035;-61
2024/03/31 04:39:51;;;;;;;96.50;91.60;;;;;;;;;;5110912;27;20027;-61
2024/03/31 04:42:16;;;;;;;103.15;97.95;;;;;;;;;;5112732;27;20058;-61
2024/03/31 04:44:41;;;;;;;88.28;83.00;;;;;;;;;;5109240;27;20031;-62
2024/03/31 04:47:07;;;;;;;101.28;96.05;;;;;;;;;;5114523;27;20143;-62
2024/03/31 04:49:32;;;;;;;97.97;92.78;;;;;;;;;;5112824;27;20171;-62
2024/03/31 04:51:57;;;;;;;92.03;87.22;;;;;;;;;;5111070;27;20032;-62
2024/03/31 04:54:24;;;;;;;97.32;92.43;;;;;;;;;;5113954;27;20028;-62
2024/03/31 04:56:49;;;;;;;100.80;95.70;;;;;;;;;;5112392;27;20495;-61
2024/03/31 04:59:15;;;;;;;99.00;93.95;;;;;;;;;;5112451;27;20057;-61
2024/03/31 05:01:40;;;;;;;100.05;94.97;;;;;;;;;;5113883;27;20040;-61
2024/03/31 05:04:05;;;;;;;102.43;97.30;;;;;;;;;;5113570;27;20046;-61
2024/03/31 05:06:31;;;;;;;110.10;104.40;;;;;;;;;;5110565;27;20038;-61
2024/03/31 05:08:56;;;;;;;122.75;116.05;;;;;;;;;;5113129;27;20410;-61
2024/03/31 05:11:22;;;;;;;118.93;112.88;;;;;;;;;;5111609;27;20045;-61
2024/03/31 05:13:47;;;;;;;134.00;127.10;;;;;;;;;;5111666;27;20028;-61
2024/03/31 05:16:12;;;;;;;132.38;125.38;;;;;;;;;;5111220;27;20058;-62
2024/03/31 05:18:38;;;;;;;138.23;131.18;;;;;;;;;;5112914;27;20045;-61
2024/03/31 05:21:04;;;;;;;139.88;132.63;;;;;;;;;;5110119;27;20028;-62
2024/03/31 05:23:30;;;;;;;143.45;136.15;;;;;;;;;;5111180;27;20099;-61
2024/03/31 05:25:56;;;;;;;144.45;137.15;;;;;;;;;;5110398;27;20417;-62
2024/03/31 05:28:22;;;;;;;152.25;144.40;;;;;;;;;;5112726;27;20032;-61
2024/03/31 05:30:48;;;;;;;151.40;143.57;;;;;;;;;;5113398;27;20038;-61
2024/03/31 05:33:14;;;;;;;144.32;136.93;;;;;;;;;;5112537;27;20074;-61
2024/03/31 05:35:40;;;;;;;141.50;134.35;;;;;;;;;;5109727;27;20035;-61
2024/03/31 05:38:09;;;;;;;137.00;129.90;;;;;;;;;;5111031;27;20031;-62
2024/03/31 05:40:38;;;;;;;131.57;124.45;;;;;;;;;;5110045;27;20036;-61
2024/03/31 05:43:04;;;;;;;131.15;124.55;;;;;;;;;;5109878;28;20034;-62
2024/03/31 05:45:30;;;;;;;132.48;125.65;;;;;;;;;;5106444;27;20118;-61
2024/03/31 05:47:55;;;;;;;124.28;117.90;;;;;;;;;;5095416;28;20102;-61
2024/03/31 05:50:20;;;;;;;113.90;107.80;;;;;;;;;;5110330;27;20461;-60
2024/03/31 05:52:47;;;;;;;105.70;100.38;;;;;;;;;;5114426;27;20044;-60
2024/03/31 05:55:12;;;;;;;95.30;90.25;;;;;;;;;;5113882;27;20043;-60
2024/03/31 05:57:37;;;;;;;86.85;82.22;;;;;;;;;;5111479;28;20054;-60
2024/03/31 06:00:03;;;;;;;87.68;83.15;;;;;;;;;;5111116;28;20097;-60
2024/03/31 06:02:28;;;;;;;86.60;82.20;;;;;;;;;;5113764;28;20433;-60
2024/03/31 06:04:57;;;;;;;82.57;77.22;;;;;;;;;;5111415;28;20047;-60
2024/03/31 06:07:22;;;;;;;82.28;77.88;;;;;;;;;;5115883;28;20361;-60
2024/03/31 06:09:48;;;;;;;88.82;84.32;;;;;;;;;;5109796;28;20046;-60
2024/03/31 06:12:13;;;;;;;85.70;81.20;;;;;;;;;;5116237;28;20032;-60
2024/03/31 06:14:38;;;;;;;82.05;77.80;;;;;;;;;;5115438;28;20054;-60
2024/03/31 06:17:04;;;;;;;90.32;85.65;;;;;;;;;;5117946;27;20051;-60
2024/03/31 06:19:29;;;;;;;86.18;81.80;;;;;;;;;;5114966;27;20031;-60
2024/03/31 06:21:54;;;;;;;97.28;92.15;;;;;;;;;;5113279;27;20692;-60
2024/03/31 06:24:20;;;;;;;105.97;100.57;;;;;;;;;;5114717;27;20051;-60
2024/03/31 06:26:45;;;;;;;111.40;105.65;;;;;;;;;;5114499;27;20031;-59
2024/03/31 06:29:10;;;;;;;105.97;100.55;;;;;;;;;;5111650;27;20143;-60
2024/03/31 06:31:38;;;;;;;117.40;111.30;;;;;;;;;;5115429;27;20335;-60
2024/03/31 06:34:04;;;;;;;114.18;108.40;;;;;;;;;;5115055;27;20027;-60
2024/03/31 06:36:29;;;;;;;138.43;131.43;;;;;;;;;;5114465;27;20065;-56
2024/03/31 06:38:54;;;;;;;127.20;120.70;;;;;;;;;;5118368;27;20036;-59
2024/03/31 06:41:20;;;;;;;149.70;141.90;;;;;;;;;;5111784;27;20040;-60
2024/03/31 06:43:45;;;;;;;157.85;149.75;;;;;;;;;;5109244;27;20713;-60
2024/03/31 06:46:11;;;;;;;193.85;183.82;;;;;;;;;;5116457;27;20126;-60
2024/03/31 06:48:36;;;;;;;224.98;213.63;;;;;;;;;;5092648;27;20073;-60
2024/03/31 06:51:01;;;;;;;223.25;212.07;;;;;;;;;;5113375;27;20099;-60
2024/03/31 06:53:27;;;;;;;248.48;235.98;;;;;;;;;;5096589;27;20027;-60
2024/03/31 06:55:52;;;;;;;274.25;260.42;;;;;;;;;;5110067;27;20055;-60
2024/03/31 06:58:17;;;;;;;294.55;279.30;;;;;;;;;;5099010;27;20031;-60
2024/03/31 07:00:43;;;;;;;258.40;245.15;;;;;;;;;;5111755;27;20069;-60
2024/03/31 07:03:08;;;;;;;250.02;237.25;;;;;;;;;;5112306;27;20043;-60
2024/03/31 07:05:33;;;;;;;252.52;239.75;;;;;;;;;;5110388;27;20084;-60
2024/03/31 07:07:59;;;;;;;278.33;264.25;;;;;;;;;;5112180;27;20034;-59
2024/03/31 07:10:24;;;;;;;312.52;295.73;;;;;;;;;;5112396;27;20031;-60
2024/03/31 07:12:49;;;;;;;307.48;291.55;;;;;;;;;;5109852;27;20032;-59
2024/03/31 07:15:15;;;;;;;305.58;288.90;;;;;;;;;;5116761;27;20046;-60
2024/03/31 07:17:43;;;;;;;309.80;293.65;;;;;;;;;;5112168;27;20346;-60
2024/03/31 07:20:09;;;;;;;294.50;279.45;;;;;;;;;;5115160;27;20040;-60
2024/03/31 07:22:34;;;;;;;295.30;280.08;;;;;;;;;;5115631;27;20023;-60
2024/03/31 07:25:00;;;;;;;301.33;285.35;;;;;;;;;;5114877;27;20124;-59
2024/03/31 07:27:26;;;;;;;295.23;279.98;;;;;;;;;;5113911;27;20039;-60
2024/03/31 07:29:51;;;;;;;280.88;266.30;;;;;;;;;;5113659;27;20467;-59
2024/03/31 07:32:17;;;;;;;250.60;237.82;;;;;;;;;;5113809;27;20038;-60
2024/03/31 07:34:42;;;;;;;196.50;185.23;;;;;;;;;;5113981;27;20310;-60
2024/03/31 07:37:07;;;;;;;190.75;180.70;;;;;;;;;;5113596;27;20462;-60
2024/03/31 07:39:35;;;;;;;168.68;160.07;;;;;;;;;;5111533;27;20055;-60
2024/03/31 07:42:00;;;;;;;139.75;131.50;;;;;;;;;;5114211;27;20031;-60
2024/03/31 07:44:26;;;;;;;132.90;126.03;;;;;;;;;;5110315;27;20054;-59
2024/03/31 07:46:51;;;;;;;130.90;124.00;;;;;;;;;;5111420;27;20039;-59
2024/03/31 07:49:16;;;;;;;126.65;119.20;;;;;;;;;;5113322;27;20119;-60
2024/03/31 07:51:42;;;;;;;116.43;110.07;;;;;;;;;;5107861;27;20103;-60
2024/03/31 07:54:07;;;;;;;120.38;114.18;;;;;;;;;;5112343;27;20801;-58
2024/03/31 07:56:32;;;;;;;119.22;113.13;;;;;;;;;;5111294;27;20936;-58
2024/03/31 07:58:58;;;;;;;138.30;131.32;;;;;;;;;;5112471;27;20460;-58
2024/03/31 08:01:23;;;;;;;119.40;113.45;;;;;;;;;;5114570;27;20109;-60
2024/03/31 08:03:48;;;;;;;126.57;120.32;;;;;;;;;;5110453;27;20042;-60
2024/03/31 08:06:14;;;;;;;122.75;116.35;;;;;;;;;;5110848;27;20498;-61
2024/03/31 08:08:39;;;;;;;86.32;81.90;;;;;;;;;;5112464;27;20055;-61
2024/03/31 08:11:04;;;;;;;110.28;104.18;;;;;;;;;;5112593;27;20464;-61
2024/03/31 08:13:30;;;;;;;63.75;60.30;;;;;;;;;;5110202;27;20035;-61
2024/03/31 08:15:55;;;;;;;56.70;53.53;;;;;;;;;;5112523;27;20036;-60
2024/03/31 08:18:20;;;;;;;55.75;52.92;;;;;;;;;;5110753;27;20081;-61
2024/03/31 08:20:48;;;;;;;54.33;51.42;;;;;;;;;;5109031;27;20109;-60
2024/03/31 08:23:14;;;;;;;52.03;49.22;;;;;;;;;;5116371;27;20035;-58
2024/03/31 08:25:40;;;;;;;46.42;44.03;;;;;;;;;;5110450;27;20256;-58
2024/03/31 08:28:06;;;;;;;44.75;42.38;;;;;;;;;;5112353;27;20039;-58
2024/03/31 08:30:31;;;;;;;44.58;42.28;;;;;;;;;;5110651;27;20102;-58
2024/03/31 08:32:57;;;;;;;46.30;43.80;;;;;;;;;;5108542;27;20052;-58
2024/03/31 08:35:22;;;;;;;49.45;45.90;;;;;;;;;;5115477;27;20407;-58
2024/03/31 08:37:47;;;;;;;43.65;41.22;;;;;;;;;;5110418;27;20032;-58
2024/03/31 08:40:14;;;;;;;47.28;44.75;;;;;;;;;;5112909;27;20081;-58
2024/03/31 08:42:48;;;;;;;43.85;41.42;;;;;;;;;;5107766;27;20053;-58
2024/03/31 08:45:15;;;;;;;59.70;55.83;;;;;;;;;;5109880;27;20084;-60
2024/03/31 08:47:43;;;;;;;69.05;65.60;;;;;;;;;;5110822;27;20041;-60
2024/03/31 08:50:09;;;;;;;54.17;51.42;;;;;;;;;;5110474;27;20085;-60
2024/03/31 08:52:35;;;;;;;39.17;36.72;;;;;;;;;;5112864;27;20058;-60
2024/03/31 08:55:02;;;;;;;42.38;40.17;;;;;;;;;;5090072;27;20607;-60
2024/03/31 08:57:28;;;;;;;49.95;47.35;;;;;;;;;;5113682;27;20070;-60
2024/03/31 08:59:53;;;;;;;50.50;47.17;;;;;;;;;;5110159;27;20051;-60
2024/03/31 09:02:23;;;;;;;77.70;73.47;;;;;;;;;;5109932;27;20040;-60
2024/03/31 09:04:48;;;;;;;43.97;40.97;;;;;;;;;;5113358;27;20023;-60
2024/03/31 09:07:14;;;;;;;49.42;46.83;;;;;;;;;;5094668;27;20142;-60
2024/03/31 09:09:40;;;;;;;54.08;51.30;;;;;;;;;;5108150;27;20100;-60
2024/03/31 09:12:10;;;;;;;56.13;53.22;;;;;;;;;;5109041;27;20096;-60
2024/03/31 09:14:37;;;;;;;84.53;80.30;;;;;;;;;;5096048;27;20027;-60
2024/03/31 09:17:06;;;;;;;65.80;61.40;;;;;;;;;;5112438;27;20027;-60
2024/03/31 09:19:31;;;;;;;71.28;67.70;;;;;;;;;;5089600;27;20060;-61
2024/03/31 09:21:57;;;;;;;80.60;76.57;;;;;;;;;;5110019;27;20027;-61
2024/03/31 09:24:22;;;;;;;86.10;81.72;;;;;;;;;;5111616;27;20399;-61
2024/03/31 09:26:49;;;;;;;119.05;112.50;;;;;;;;;;5109413;27;20031;-61
2024/03/31 09:29:15;;;;;;;110.13;104.43;;;;;;;;;;5110815;27;20039;-61
2024/03/31 09:31:40;;;;;;;97.13;91.65;;;;;;;;;;5111507;27;20038;-61
2024/03/31 09:34:07;;;;;;;120.65;114.57;;;;;;;;;;5113310;27;20051;-61
2024/03/31 09:36:38;;;;;;;118.43;112.50;;;;;;;;;;5108202;27;20031;-61
2024/03/31 09:39:04;;;;;;;101.13;95.13;;;;;;;;;;5108813;27;20028;-61
2024/03/31 09:41:30;;;;;;;92.90;88.03;;;;;;;;;;5090320;28;20028;-61
2024/03/31 09:43:55;;;;;;;109.35;103.68;;;;;;;;;;5108558;27;20027;-61
2024/03/31 09:46:21;;;;;;;131.07;124.55;;;;;;;;;;5109901;27;20072;-61
2024/03/31 09:48:50;;;;;;;129.73;123.32;;;;;;;;;;5111927;27;21250;-61
2024/03/31 09:51:20;;;;;;;97.60;92.68;;;;;;;;;;5108843;27;20550;-62
2024/03/31 09:53:57;;;;;;;131.65;124.90;;;;;;;;;;5074593;28;20035;-61
2024/03/31 09:56:28;;;;;;;83.65;79.03;;;;;;;;;;5110394;27;20031;-61
2024/03/31 09:58:57;;;;;;;49.28;46.67;;;;;;;;;;5109976;28;20023;-61
2024/03/31 10:01:23;;;;;;;42.67;40.47;;;;;;;;;;5093103;28;20036;-61
2024/03/31 10:03:53;;;;;;;48.22;45.70;;;;;;;;;;5110041;28;20086;-60
2024/03/31 10:06:19;;;;;;;42.58;40.40;;;;;;;;;;5109854;28;20038;-61
2024/03/31 10:08:46;;;;;;;40.50;38.30;;;;;;;;;;5107627;28;20458;-60
2024/03/31 10:11:12;;;;;;;42.22;40.00;;;;;;;;;;5111930;28;20103;-61
2024/03/31 10:13:38;;;;;;;44.95;42.58;;;;;;;;;;5111234;28;20023;-61
2024/03/31 10:16:06;;;;;;;49.83;47.28;;;;;;;;;;5110725;28;20028;-61
2024/03/31 10:18:32;;;;;;;45.42;43.10;;;;;;;;;;5112335;28;20028;-61
2024/03/31 10:20:58;;;;;;;52.92;50.25;;;;;;;;;;5108452;28;20496;-61
2024/03/31 10:23:24;;;;;;;47.83;44.95;;;;;;;;;;5111663;28;20035;-61
2024/03/31 10:25:52;;;;;;;46.90;44.08;;;;;;;;;;5110630;28;20114;-61
2024/03/31 10:28:18;;;;;;;43.75;41.42;;;;;;;;;;5111026;28;20027;-61
2024/03/31 10:30:43;;;;;;;39.47;37.38;;;;;;;;;;5109567;28;20053;-61
2024/03/31 10:33:10;;;;;;;35.25;33.42;;;;;;;;;;5114713;28;20040;-61
2024/03/31 10:35:38;;;;;;;44.35;41.60;;;;;;;;;;5091671;28;20067;-61
2024/03/31 10:38:04;;;;;;;39.60;37.50;;;;;;;;;;5110341;28;20038;-61
2024/03/31 10:40:30;;;;;;;42.35;40.05;;;;;;;;;;5114214;28;20084;-61
2024/03/31 10:42:56;;;;;;;62.00;58.60;;;;;;;;;;5111781;28;20066;-61
2024/03/31 10:45:25;;;;;;;71.43;67.70;;;;;;;;;;5114271;28;20031;-61
2024/03/31 10:47:51;;;;;;;277.33;263.00;;;;;;;;;;5108106;28;20035;-61
2024/03/31 10:50:23;;;;;;;273.52;259.75;;;;;;;;;;5109473;28;20518;-61
2024/03/31 10:52:48;;;;;;;320.92;304.17;;;;;;;;;;5094566;28;20415;-61
2024/03/31 10:55:17;;;;;;;289.77;274.92;;;;;;;;;;5111901;28;20031;-61
2024/03/31 10:57:43;;;;;;;256.98;244.07;;;;;;;;;;5110338;28;20023;-61
2024/03/31 11:00:17;;;;;;;297.58;282.55;;;;;;;;;;5108595;28;20035;-61
2024/03/31 11:02:42;;;;;;;183.30;174.13;;;;;;;;;;5113790;28;20093;-61
2024/03/31 11:05:11;;;;;;;224.95;213.43;;;;;;;;;;5113380;27;20043;-61
2024/03/31 11:07:44;;;;;;;210.15;199.63;;;;;;;;;;5113230;27;20039;-61
2024/03/31 11:10:12;;;;;;;123.65;117.47;;;;;;;;;;5114042;27;20528;-61
2024/03/31 11:12:42;;;;;;;162.73;154.52;;;;;;;;;;5111773;27;20068;-61
2024/03/31 11:15:08;;;;;;;146.75;139.43;;;;;;;;;;5112892;27;20059;-61
2024/03/31 11:17:34;;;;;;;208.63;198.05;;;;;;;;;;5115818;27;20054;-61
2024/03/31 11:20:00;;;;;;;222.45;211.48;;;;;;;;;;5114385;27;20610;-61
2024/03/31 11:22:26;;;;;;;235.82;223.95;;;;;;;;;;5112341;27;20031;-61
2024/03/31 11:24:52;;;;;;;166.45;158.10;;;;;;;;;;5094112;27;20369;-61
2024/03/31 11:27:18;;;;;;;136.73;129.93;;;;;;;;;;5112847;27;20364;-61
2024/03/31 11:29:44;;;;;;;150.70;143.07;;;;;;;;;;5111676;27;20039;-61
2024/03/31 11:32:11;;;;;;;121.78;115.70;;;;;;;;;;5096274;27;20358;-61
2024/03/31 11:34:38;;;;;;;105.85;100.57;;;;;;;;;;5110142;27;20111;-61
2024/03/31 11:37:05;;;;;;;105.63;100.03;;;;;;;;;;5115270;27;20031;-61
2024/03/31 11:39:34;;;;;;;85.43;81.13;;;;;;;;;;5113291;27;20031;-61
2024/03/31 11:41:59;;;;;;;114.22;108.45;;;;;;;;;;5116153;27;20051;-61
2024/03/31 11:44:25;;;;;;;85.82;81.40;;;;;;;;;;5113128;27;20047;-61
2024/03/31 11:46:51;;;;;;;99.82;94.72;;;;;;;;;;5117292;27;20038;-61
2024/03/31 11:49:16;;;;;;;114.53;108.78;;;;;;;;;;5114327;27;20034;-61
2024/03/31 11:51:43;;;;;;;104.88;99.03;;;;;;;;;;5116298;27;20102;-61
2024/03/31 11:54:08;;;;;;;142.50;135.20;;;;;;;;;;5112420;27;20595;-61
2024/03/31 11:56:36;;;;;;;128.95;121.07;;;;;;;;;;5114716;27;20035;-59
2024/03/31 11:59:12;;;;;;;115.22;109.40;;;;;;;;;;5112367;27;20473;-59
2024/03/31 12:01:37;;;;;;;133.40;126.63;;;;;;;;;;5113234;27;20055;-60
2024/03/31 12:04:03;;;;;;;140.82;133.73;;;;;;;;;;5092491;27;20036;-61
2024/03/31 12:06:28;;;;;;;177.55;168.73;;;;;;;;;;5104224;27;20675;-60
2024/03/31 12:08:53;;;;;;;139.52;132.05;;;;;;;;;;5111508;27;20504;-60
2024/03/31 12:11:19;;;;;;;169.18;160.55;;;;;;;;;;5111008;27;20811;-61
2024/03/31 12:13:49;;;;;;;149.65;142.18;;;;;;;;;;5111270;27;20106;-60
2024/03/31 12:16:15;;;;;;;148.63;140.57;;;;;;;;;;5110330;27;20067;-60
2024/03/31 12:18:41;;;;;;;170.82;162.30;;;;;;;;;;5110600;27;20260;-60
2024/03/31 12:21:06;;;;;;;147.85;140.25;;;;;;;;;;5112489;27;20663;-60
2024/03/31 12:23:33;;;;;;;154.95;147.05;;;;;;;;;;5114613;27;20047;-60
2024/03/31 12:25:59;;;;;;;164.82;156.57;;;;;;;;;;5110952;27;20054;-61
2024/03/31 12:28:25;;;;;;;175.50;166.77;;;;;;;;;;5113213;27;20032;-61
2024/03/31 12:30:51;;;;;;;169.07;160.50;;;;;;;;;;5088402;27;20500;-60
2024/03/31 12:33:17;;;;;;;191.10;181.68;;;;;;;;;;5114080;27;20130;-60
2024/03/31 12:35:44;;;;;;;159.63;151.40;;;;;;;;;;5095127;27;20027;-61
2024/03/31 12:38:10;;;;;;;188.25;178.77;;;;;;;;;;5097501;27;20035;-60
2024/03/31 12:40:35;;;;;;;152.35;144.65;;;;;;;;;;5094361;27;20050;-60
2024/03/31 12:43:01;;;;;;;140.73;133.30;;;;;;;;;;5109942;27;20078;-60
2024/03/31 12:45:26;;;;;;;148.85;141.35;;;;;;;;;;5112382;27;20035;-60
2024/03/31 12:47:52;;;;;;;157.63;149.70;;;;;;;;;;5113212;27;20485;-61
2024/03/31 12:50:18;;;;;;;175.68;166.82;;;;;;;;;;5113837;27;20076;-61
2024/03/31 12:52:44;;;;;;;170.25;161.65;;;;;;;;;;5113488;27;20180;-60
2024/03/31 12:55:13;;;;;;;160.57;152.40;;;;;;;;;;5110360;27;20871;-61
2024/03/31 12:57:39;;;;;;;150.77;143.07;;;;;;;;;;5112097;27;20043;-61
2024/03/31 13:00:09;;;;;;;140.85;133.73;;;;;;;;;;5111139;27;20042;-60
2024/03/31 13:02:40;;;;;;;161.43;152.50;;;;;;;;;;5111251;27;20036;-60
2024/03/31 13:05:06;;;;;;;179.77;170.77;;;;;;;;;;5111735;27;20300;-61
2024/03/31 13:07:35;;;;;;;155.73;147.90;;;;;;;;;;5110655;27;20703;-61
2024/03/31 13:10:02;;;;;;;137.15;130.10;;;;;;;;;;5112386;27;20143;-61
2024/03/31 13:12:28;;;;;;;151.90;144.32;;;;;;;;;;5111310;27;20042;-60
2024/03/31 13:14:55;;;;;;;162.43;153.52;;;;;;;;;;5111360;27;20031;-60
2024/03/31 13:17:21;;;;;;;169.95;161.32;;;;;;;;;;5112283;27;20030;-60
2024/03/31 13:19:46;;;;;;;162.07;153.43;;;;;;;;;;5091383;27;20561;-60
2024/03/31 13:22:12;;;;;;;173.43;164.60;;;;;;;;;;5110014;27;20041;-60
2024/03/31 13:24:37;;;;;;;152.82;145.20;;;;;;;;;;5074133;27;20110;-60
2024/03/31 13:27:03;;;;;;;187.90;176.50;;;;;;;;;;5110642;27;20055;-60
2024/03/31 13:29:29;;;;;;;152.88;145.07;;;;;;;;;;5109259;27;20039;-60
2024/03/31 13:31:54;;;;;;;209.85;199.55;;;;;;;;;;5109600;27;20040;-60
2024/03/31 13:34:19;;;;;;;192.57;182.93;;;;;;;;;;5110880;27;20030;-60
2024/03/31 13:36:47;;;;;;;242.05;229.80;;;;;;;;;;5090701;28;20035;-60
2024/03/31 13:39:12;;;;;;;224.40;212.90;;;;;;;;;;5110790;27;20609;-60
2024/03/31 13:41:37;;;;;;;381.58;361.67;;;;;;;;;;5093943;27;20083;-60
2024/03/31 13:44:03;;;;;;;300.23;285.20;;;;;;;;;;5109546;27;20031;-60
2024/03/31 13:46:28;;;;;;;212.48;201.55;;;;;;;;;;5105957;27;20034;-60
2024/03/31 13:48:54;;;;;;;127.05;120.53;;;;;;;;;;5110439;27;20484;-60
2024/03/31 13:51:19;;;;;;;191.93;182.23;;;;;;;;;;5111189;27;20036;-60